createdAt,value
2022-10-16T00:02:23.623Z,84.69
2022-10-16T00:04:51.271Z,84.64
2022-10-16T00:07:18.915Z,85.00
2022-10-16T00:09:47.962Z,84.30
2022-10-16T00:12:15.549Z,84.33
2022-10-16T00:14:45.062Z,84.61
2022-10-16T00:17:12.658Z,84.82
2022-10-16T00:19:40.331Z,84.25
2022-10-16T00:22:07.951Z,84.55
2022-10-16T00:24:35.565Z,84.05
2022-10-16T00:27:04.717Z,84.30
2022-10-16T00:29:32.343Z,84.28
2022-10-16T00:31:59.990Z,84.16
2022-10-16T00:34:27.650Z,84.55
2022-10-16T00:36:55.291Z,84.47
2022-10-16T00:39:23.267Z,84.57
2022-10-16T00:41:50.901Z,84.29
2022-10-16T00:44:45.870Z,84.44
2022-10-16T00:47:15.572Z,84.47
2022-10-16T00:49:43.389Z,84.94
2022-10-16T00:52:12.067Z,85.09
2022-10-16T00:54:39.715Z,85.05
2022-10-16T00:57:08.293Z,85.00
2022-10-16T00:59:38.664Z,85.21
2022-10-16T01:02:10.334Z,85.24
2022-10-16T01:04:40.588Z,85.20
2022-10-16T01:07:14.832Z,85.66
2022-10-16T01:09:51.369Z,85.45
2022-10-16T01:12:24.514Z,85.80
2022-10-16T01:14:56.799Z,85.84
2022-10-16T01:17:33.340Z,85.93
2022-10-16T01:20:07.447Z,86.04
2022-10-16T01:22:40.964Z,85.83
2022-10-16T01:25:14.167Z,86.12
2022-10-16T01:27:44.601Z,86.38
2022-10-16T01:30:15.594Z,86.00
2022-10-16T01:32:44.546Z,86.44
2022-10-16T01:35:14.332Z,86.60
2022-10-16T01:37:49.022Z,86.40
2022-10-16T01:40:18.628Z,86.65
2022-10-16T01:42:50.842Z,86.13
2022-10-16T01:45:21.105Z,86.34
2022-10-16T01:47:49.942Z,86.52
2022-10-16T01:50:19.582Z,86.59
2022-10-16T01:52:49.204Z,86.49
2022-10-16T01:55:20.821Z,86.57
2022-10-16T01:57:51.614Z,86.70
2022-10-16T02:00:21.272Z,86.86
2022-10-16T02:02:51.732Z,86.81
2022-10-16T02:05:24.458Z,87.20
2022-10-16T02:07:52.138Z,87.09
2022-10-16T02:10:20.426Z,87.55
2022-10-16T02:12:52.219Z,87.03
2022-10-16T02:15:19.981Z,87.01
2022-10-16T02:17:47.598Z,87.26
2022-10-16T02:20:15.290Z,87.55
2022-10-16T02:22:46.230Z,87.19
2022-10-16T02:25:18.820Z,87.62
2022-10-16T02:27:52.696Z,87.14
2022-10-16T02:30:24.146Z,87.65
2022-10-16T02:32:52.434Z,88.08
2022-10-16T02:35:22.520Z,88.09
2022-10-16T02:37:51.311Z,87.79
2022-10-16T02:40:22.850Z,87.92
2022-10-16T02:42:55.497Z,87.83
2022-10-16T02:45:23.520Z,88.28
2022-10-16T02:47:51.196Z,88.19
2022-10-16T02:50:19.025Z,88.07
2022-10-16T02:52:46.663Z,88.41
2022-10-16T02:55:14.298Z,88.45
2022-10-16T02:57:42.298Z,88.41
2022-10-16T03:00:15.121Z,88.77
2022-10-16T03:02:43.006Z,88.61
2022-10-16T03:05:11.437Z,88.60
2022-10-16T03:07:39.096Z,89.06
2022-10-16T03:10:07.517Z,88.86
2022-10-16T03:12:35.191Z,89.12
2022-10-16T03:15:02.891Z,88.97
2022-10-16T03:17:32.213Z,88.93
2022-10-16T03:19:59.929Z,89.11
2022-10-16T03:22:27.572Z,88.63
2022-10-16T03:24:55.469Z,88.92
2022-10-16T03:27:23.257Z,89.05
2022-10-16T03:29:51.042Z,89.22
2022-10-16T03:32:19.398Z,89.02
2022-10-16T03:34:48.423Z,89.04
2022-10-16T03:37:16.035Z,89.11
2022-10-16T03:39:43.676Z,88.81
2022-10-16T03:42:11.298Z,88.96
2022-10-16T03:44:38.924Z,88.76
2022-10-16T03:47:06.592Z,88.45
2022-10-16T03:49:34.218Z,88.30
2022-10-16T03:52:03.245Z,88.85
2022-10-16T03:54:30.840Z,88.50
2022-10-16T03:56:58.465Z,88.33
2022-10-16T03:59:26.054Z,88.58
2022-10-16T04:01:53.724Z,88.40
2022-10-16T04:04:21.334Z,88.71
2022-10-16T04:06:48.912Z,88.71
2022-10-16T04:09:17.960Z,88.65
2022-10-16T04:11:45.532Z,88.78
2022-10-16T04:14:13.164Z,88.29
2022-10-16T04:16:40.783Z,88.41
2022-10-16T04:19:08.465Z,88.51
2022-10-16T04:21:36.188Z,88.50
2022-10-16T04:24:03.861Z,88.40
2022-10-16T04:26:32.882Z,88.41
2022-10-16T04:29:00.599Z,88.60
2022-10-16T04:31:28.616Z,88.29
2022-10-16T04:33:56.210Z,88.27
2022-10-16T04:36:26.771Z,88.30
2022-10-16T04:38:56.850Z,88.33
2022-10-16T04:41:24.488Z,88.49
2022-10-16T04:43:53.433Z,88.62
2022-10-16T04:46:21.089Z,88.25
2022-10-16T04:48:48.730Z,88.39
2022-10-16T04:51:16.430Z,88.50
2022-10-16T04:53:44.092Z,88.55
2022-10-16T04:56:11.736Z,89.02
2022-10-16T04:58:39.347Z,88.46
2022-10-16T05:01:08.372Z,88.68
2022-10-16T05:03:36.065Z,88.70
2022-10-16T05:06:05.030Z,88.76
2022-10-16T05:08:32.622Z,88.88
2022-10-16T05:11:00.588Z,88.83
2022-10-16T05:13:28.224Z,88.83
2022-10-16T05:15:55.836Z,89.01
2022-10-16T05:18:24.841Z,88.80
2022-10-16T05:20:52.489Z,88.68
2022-10-16T05:23:20.116Z,88.69
2022-10-16T05:25:54.491Z,88.51
2022-10-16T05:28:22.129Z,88.31
2022-10-16T05:30:49.772Z,88.80
2022-10-16T05:33:17.905Z,88.43
2022-10-16T05:35:47.469Z,88.45
2022-10-16T05:38:15.248Z,88.31
2022-10-16T05:40:42.913Z,88.34
2022-10-16T05:43:10.634Z,88.35
2022-10-16T05:45:38.253Z,88.24
2022-10-16T05:48:06.530Z,88.20
2022-10-16T05:50:34.223Z,88.41
2022-10-16T05:53:03.252Z,88.40
2022-10-16T05:55:30.883Z,88.24
2022-10-16T05:57:58.450Z,88.24
2022-10-16T06:00:26.051Z,88.36
2022-10-16T06:02:53.802Z,88.43
2022-10-16T06:05:21.446Z,88.27
2022-10-16T06:07:48.988Z,88.31
2022-10-16T06:10:18.304Z,87.98
2022-10-16T06:12:45.908Z,88.06
2022-10-16T06:15:13.524Z,88.19
2022-10-16T06:17:41.160Z,88.26
2022-10-16T06:20:09.295Z,87.96
2022-10-16T06:22:37.535Z,88.13
2022-10-16T06:25:06.412Z,88.33
2022-10-16T06:27:35.448Z,88.13
2022-10-16T06:30:04.746Z,88.22
2022-10-16T06:32:32.426Z,88.43
2022-10-16T06:35:00.120Z,88.36
2022-10-16T06:37:29.167Z,88.28
2022-10-16T06:39:56.967Z,88.20
2022-10-16T06:42:24.920Z,88.20
2022-10-16T06:44:54.349Z,88.63
2022-10-16T06:47:21.961Z,88.76
2022-10-16T06:49:53.434Z,89.18
2022-10-16T06:52:22.094Z,88.83
2022-10-16T06:54:49.737Z,88.99
2022-10-16T06:57:17.635Z,89.42
2022-10-16T06:59:47.064Z,89.38
2022-10-16T07:02:16.392Z,89.43
2022-10-16T07:04:44.001Z,89.26
2022-10-16T07:07:11.592Z,89.77
2022-10-16T07:09:39.244Z,89.33
2022-10-16T07:12:06.939Z,89.51
2022-10-16T07:14:34.610Z,89.83
2022-10-16T07:17:02.361Z,89.46
2022-10-16T07:19:34.248Z,89.17
2022-10-16T07:22:02.528Z,89.26
2022-10-16T07:24:30.199Z,89.20
2022-10-16T07:26:57.838Z,89.17
2022-10-16T07:29:25.467Z,89.19
2022-10-16T07:31:53.179Z,89.17
2022-10-16T07:34:22.557Z,89.14
2022-10-16T07:36:51.926Z,89.02
2022-10-16T07:39:19.862Z,89.40
2022-10-16T07:41:47.500Z,89.26
2022-10-16T07:44:15.440Z,88.94
2022-10-16T07:46:43.080Z,89.22
2022-10-16T07:49:11.332Z,89.16
2022-10-16T07:51:40.277Z,89.33
2022-10-16T07:54:10.403Z,89.05
2022-10-16T07:56:39.972Z,89.83
2022-10-16T07:59:10.743Z,89.33
2022-10-16T08:01:38.593Z,89.03
2022-10-16T08:04:07.366Z,89.11
2022-10-16T08:06:37.894Z,89.08
2022-10-16T08:09:05.751Z,89.02
2022-10-16T08:11:35.196Z,88.43
2022-10-16T08:14:02.910Z,89.03
2022-10-16T08:16:30.638Z,88.54
2022-10-16T08:18:58.331Z,88.73
2022-10-16T08:21:26.017Z,88.48
2022-10-16T08:23:58.139Z,88.69
2022-10-16T08:26:27.083Z,88.57
2022-10-16T08:28:57.085Z,88.22
2022-10-16T08:31:25.094Z,88.05
2022-10-16T08:33:53.382Z,87.65
2022-10-16T08:36:21.180Z,88.51
2022-10-16T08:38:50.817Z,88.58
2022-10-16T08:41:34.780Z,88.26
2022-10-16T08:44:16.242Z,88.08
2022-10-16T08:46:50.571Z,87.40
2022-10-16T08:49:18.911Z,88.04
2022-10-16T08:51:47.497Z,87.94
2022-10-16T08:54:25.025Z,87.41
2022-10-16T08:56:52.688Z,86.16
2022-10-16T08:59:21.830Z,86.09
2022-10-16T09:01:52.204Z,86.57
2022-10-16T09:04:44.275Z,86.37
2022-10-16T09:07:17.364Z,86.96
2022-10-16T09:09:58.598Z,85.65
2022-10-16T09:12:31.296Z,86.37
2022-10-16T09:15:05.462Z,85.52
2022-10-16T09:17:40.304Z,85.48
2022-10-16T09:20:29.615Z,83.87
2022-10-16T09:23:10.119Z,85.66
2022-10-16T09:25:41.102Z,85.06
2022-10-16T09:28:10.905Z,84.11
2022-10-16T09:30:40.516Z,83.04
2022-10-16T09:33:09.162Z,83.68
2022-10-16T09:35:39.802Z,82.56
2022-10-16T09:38:07.860Z,82.77
2022-10-16T09:40:37.752Z,83.11
2022-10-16T09:43:17.146Z,83.09
2022-10-16T09:45:56.227Z,83.16
2022-10-16T09:48:24.450Z,83.01
2022-10-16T09:50:59.857Z,84.24
2022-10-16T09:53:38.303Z,81.83
2022-10-16T09:56:10.359Z,82.49
2022-10-16T09:58:44.419Z,83.58
2022-10-16T10:01:15.341Z,82.74
2022-10-16T10:03:44.575Z,81.73
2022-10-16T10:06:21.460Z,80.93
2022-10-16T10:08:57.423Z,80.29
2022-10-16T10:11:56.029Z,80.98
2022-10-16T10:14:26.485Z,79.32
2022-10-16T10:17:08.952Z,80.21
2022-10-16T10:19:40.915Z,79.41
2022-10-16T10:22:18.345Z,79.86
2022-10-16T10:24:46.518Z,81.02
2022-10-16T10:27:17.896Z,81.93
2022-10-16T10:29:50.972Z,82.82
2022-10-16T10:32:26.392Z,77.95
2022-10-16T10:35:02.995Z,80.43
2022-10-16T10:37:43.136Z,77.61
2022-10-16T10:40:18.879Z,76.46
2022-10-16T10:42:50.335Z,77.61
2022-10-16T10:45:28.356Z,76.77
2022-10-16T10:48:12.571Z,77.65
2022-10-16T10:50:43.825Z,75.91
2022-10-16T10:53:20.882Z,75.20
2022-10-16T10:55:54.413Z,76.41
2022-10-16T10:58:35.110Z,75.81
2022-10-16T11:01:06.856Z,73.46
2022-10-16T11:03:47.291Z,72.79
2022-10-16T11:06:17.454Z,72.75
2022-10-16T11:08:48.771Z,73.75
2022-10-16T11:11:19.570Z,72.88
2022-10-16T11:13:54.131Z,71.56
2022-10-16T11:16:25.070Z,72.69
2022-10-16T11:19:00.031Z,73.48
2022-10-16T11:21:31.157Z,72.04
2022-10-16T11:24:02.271Z,71.36
2022-10-16T11:26:33.795Z,70.89
2022-10-16T11:29:02.545Z,71.12
2022-10-16T11:31:34.461Z,74.47
2022-10-16T11:34:08.333Z,70.50
2022-10-16T11:36:40.568Z,70.56
2022-10-16T11:39:17.537Z,72.88
2022-10-16T11:41:48.897Z,71.01
2022-10-16T11:44:36.888Z,69.37
2022-10-16T11:47:33.673Z,68.26
2022-10-16T11:50:05.134Z,67.82
2022-10-16T11:52:37.789Z,66.81
2022-10-16T11:55:08.520Z,66.27
2022-10-16T11:57:40.471Z,65.81
2022-10-16T12:00:12.009Z,67.09
2022-10-16T12:02:50.545Z,65.48
2022-10-16T12:05:27.022Z,66.68
2022-10-16T12:08:04.633Z,69.95
2022-10-16T12:13:32.134Z,66.37
2022-10-16T12:16:07.761Z,65.96
2022-10-16T12:18:35.467Z,64.88
2022-10-16T12:21:07.549Z,64.61
2022-10-16T12:23:35.605Z,64.80
2022-10-16T12:26:03.721Z,64.00
2022-10-16T12:28:33.693Z,64.64
2022-10-16T12:31:02.765Z,66.31
2022-10-16T12:33:31.963Z,64.95
2022-10-16T12:36:00.974Z,65.11
2022-10-16T12:38:32.640Z,65.30
2022-10-16T12:41:02.297Z,64.90
2022-10-16T12:43:43.239Z,65.95
2022-10-16T12:46:37.698Z,64.09
2022-10-16T12:49:25.499Z,65.35
2022-10-16T12:51:53.477Z,64.68
2022-10-16T12:54:26.720Z,65.06
2022-10-16T12:57:04.210Z,63.67
2022-10-16T12:59:37.693Z,63.86
2022-10-16T13:02:20.262Z,62.64
2022-10-16T13:05:15.242Z,62.64
2022-10-16T13:07:51.508Z,63.52
2022-10-16T13:10:25.655Z,61.67
2022-10-16T13:13:22.742Z,62.55
2022-10-16T13:16:00.944Z,60.77
2022-10-16T13:18:32.973Z,59.59
2022-10-16T13:21:13.497Z,59.38
2022-10-16T13:26:24.272Z,60.21
2022-10-16T13:28:52.017Z,59.05
2022-10-16T13:31:22.105Z,60.57
2022-10-16T13:33:53.696Z,59.27
2022-10-16T13:36:23.505Z,58.25
2022-10-16T13:38:51.152Z,58.73
2022-10-16T13:41:21.263Z,58.13
2022-10-16T13:43:50.988Z,58.54
2022-10-16T13:46:20.923Z,58.31
2022-10-16T13:48:58.837Z,58.09
2022-10-16T13:51:27.075Z,58.66
2022-10-16T13:53:54.817Z,57.71
2022-10-16T13:56:25.287Z,57.50
2022-10-16T13:59:00.926Z,58.08
2022-10-16T14:01:32.671Z,57.88
2022-10-16T14:04:06.140Z,58.03
2022-10-16T14:06:34.722Z,59.32
2022-10-16T14:09:04.551Z,58.39
2022-10-16T14:11:34.078Z,58.04
2022-10-16T14:14:03.527Z,56.96
2022-10-16T14:16:32.358Z,57.08
2022-10-16T14:19:02.386Z,57.63
2022-10-16T14:21:30.541Z,56.45
2022-10-16T14:23:58.492Z,61.23
2022-10-16T14:26:28.135Z,58.84
2022-10-16T14:29:13.817Z,60.50
2022-10-16T14:31:41.738Z,60.56
2022-10-16T14:34:26.443Z,58.80
2022-10-16T14:36:54.116Z,58.83
2022-10-16T14:39:23.171Z,59.26
2022-10-16T14:41:52.535Z,60.23
2022-10-16T14:44:24.620Z,61.24
2022-10-16T14:46:52.213Z,60.50
2022-10-16T14:49:21.316Z,60.25
2022-10-16T14:51:49.141Z,60.51
2022-10-16T14:54:18.505Z,61.60
2022-10-16T14:56:49.907Z,62.69
2022-10-16T14:59:30.168Z,62.32
2022-10-16T15:01:58.206Z,62.33
2022-10-16T15:04:25.954Z,62.20
2022-10-16T15:06:53.596Z,61.96
2022-10-16T15:09:21.258Z,61.99
2022-10-16T15:11:48.914Z,62.42
2022-10-16T15:14:16.573Z,64.35
2022-10-16T15:16:46.820Z,64.47
2022-10-16T15:19:14.433Z,62.89
2022-10-16T15:21:42.119Z,62.79
2022-10-16T15:24:11.749Z,64.22
2022-10-16T15:26:39.416Z,63.71
2022-10-16T15:29:07.133Z,65.06
2022-10-16T15:31:34.864Z,65.99
2022-10-16T15:34:05.239Z,64.97
2022-10-16T15:36:34.863Z,67.18
2022-10-16T15:39:02.514Z,67.30
2022-10-16T15:41:30.273Z,66.00
2022-10-16T15:43:58.124Z,67.18
2022-10-16T15:46:26.588Z,67.63
2022-10-16T15:48:58.694Z,68.52
2022-10-16T15:51:30.223Z,69.29
2022-10-16T15:53:57.973Z,68.37
2022-10-16T15:56:26.489Z,68.74
2022-10-16T15:58:54.737Z,69.64
2022-10-16T16:01:22.676Z,69.60
2022-10-16T16:03:54.985Z,70.41
2022-10-16T16:06:23.802Z,71.85
2022-10-16T16:08:52.878Z,71.70
2022-10-16T16:11:21.174Z,71.45
2022-10-16T16:13:48.791Z,71.71
2022-10-16T16:16:17.731Z,71.79
2022-10-16T16:18:45.941Z,72.93
2022-10-16T16:21:14.527Z,72.38
2022-10-16T16:23:42.143Z,72.39
2022-10-16T16:26:13.594Z,72.88
2022-10-16T16:28:42.193Z,73.50
2022-10-16T16:31:10.372Z,73.66
2022-10-16T16:33:38.035Z,73.58
2022-10-16T16:36:11.550Z,73.86
2022-10-16T16:38:42.317Z,73.64
2022-10-16T16:41:15.278Z,74.04
2022-10-16T16:43:43.509Z,74.38
2022-10-16T16:46:11.637Z,74.57
2022-10-16T16:48:39.329Z,74.92
2022-10-16T16:51:07.156Z,74.47
2022-10-16T16:53:35.495Z,75.06
2022-10-16T16:56:04.891Z,74.65
2022-10-16T16:58:34.392Z,74.41
2022-10-16T17:01:19.413Z,74.93
2022-10-16T17:03:50.655Z,75.40
2022-10-16T17:06:20.750Z,75.61
2022-10-16T17:08:49.239Z,76.04
2022-10-16T17:11:18.611Z,76.19
2022-10-16T17:13:49.954Z,75.77
2022-10-16T17:16:20.875Z,76.01
2022-10-16T17:18:48.485Z,75.41
2022-10-16T17:21:17.451Z,76.21
2022-10-16T17:23:45.057Z,76.50
2022-10-16T17:26:14.421Z,76.21
2022-10-16T17:28:42.568Z,76.43
2022-10-16T17:31:13.565Z,76.10
2022-10-16T17:33:41.437Z,76.20
2022-10-16T17:36:10.012Z,76.72
2022-10-16T17:38:37.716Z,76.50
2022-10-16T17:41:13.079Z,76.18
2022-10-16T17:43:40.767Z,76.44
2022-10-16T17:46:08.469Z,76.58
2022-10-16T17:48:40.093Z,76.00
2022-10-16T17:51:08.573Z,76.03
2022-10-16T17:53:36.603Z,75.54
2022-10-16T17:56:05.675Z,75.95
2022-10-16T17:58:33.738Z,75.97
2022-10-16T18:01:01.638Z,76.00
2022-10-16T18:03:29.416Z,76.37
2022-10-16T18:05:58.477Z,76.53
2022-10-16T18:08:28.697Z,76.11
2022-10-16T18:10:56.843Z,76.16
2022-10-16T18:13:24.572Z,76.82
2022-10-16T18:16:00.646Z,76.77
2022-10-16T18:18:29.706Z,77.19
2022-10-16T18:20:59.801Z,77.32
2022-10-16T18:23:28.080Z,77.50
2022-10-16T18:25:56.196Z,77.24
2022-10-16T18:28:24.102Z,77.06
2022-10-16T18:30:58.192Z,77.27
2022-10-16T18:33:26.306Z,77.22
2022-10-16T18:35:54.131Z,77.53
2022-10-16T18:38:23.559Z,77.02
2022-10-16T18:40:51.174Z,76.75
2022-10-16T18:43:18.870Z,76.64
2022-10-16T18:45:56.637Z,77.20
2022-10-16T18:48:24.412Z,77.48
2022-10-16T18:50:52.357Z,77.56
2022-10-16T18:53:20.477Z,77.77
2022-10-16T18:55:54.078Z,78.56
2022-10-16T18:58:21.740Z,77.73
2022-10-16T19:00:49.371Z,77.63
2022-10-16T19:03:18.483Z,77.67
2022-10-16T19:05:46.831Z,77.91
2022-10-16T19:08:14.826Z,77.29
2022-10-16T19:10:42.595Z,76.97
2022-10-16T19:13:11.630Z,77.41
2022-10-16T19:15:49.699Z,76.85
2022-10-16T19:18:27.032Z,77.48
2022-10-16T19:20:54.931Z,77.40
2022-10-16T19:23:22.925Z,77.52
2022-10-16T19:25:50.679Z,77.92
2022-10-16T19:28:19.823Z,78.06
2022-10-16T19:30:48.462Z,78.00
2022-10-16T19:33:16.076Z,78.20
2022-10-16T19:35:43.675Z,78.44
2022-10-16T19:38:11.356Z,78.79
2022-10-16T19:40:39.033Z,78.38
2022-10-16T19:43:06.710Z,78.82
2022-10-16T19:45:36.153Z,79.13
2022-10-16T19:48:04.050Z,79.22
2022-10-16T19:50:31.677Z,79.08
2022-10-16T19:52:59.297Z,79.25
2022-10-16T19:55:26.890Z,79.81
2022-10-16T19:57:54.500Z,79.29
2022-10-16T20:00:22.147Z,79.66
2022-10-16T20:02:51.103Z,79.75
2022-10-16T20:05:18.739Z,79.08
2022-10-16T20:07:46.326Z,78.67
2022-10-16T20:10:14.242Z,78.77
2022-10-16T20:12:42.726Z,79.04
2022-10-16T20:15:11.275Z,79.05
2022-10-16T20:17:38.920Z,79.16
2022-10-16T20:20:08.873Z,79.25
2022-10-16T20:22:36.496Z,79.08
2022-10-16T20:25:08.447Z,79.20
2022-10-16T20:27:37.808Z,78.95
2022-10-16T20:30:05.958Z,79.28
2022-10-16T20:32:33.561Z,79.44
2022-10-16T20:35:04.302Z,79.66
2022-10-16T20:37:36.130Z,79.78
2022-10-16T20:40:03.767Z,79.88
2022-10-16T20:42:31.381Z,80.27
2022-10-16T20:44:58.981Z,80.14
2022-10-16T20:47:26.810Z,80.48
2022-10-16T20:49:54.627Z,80.47
2022-10-16T20:52:22.234Z,80.41
2022-10-16T20:54:51.328Z,80.58
2022-10-16T20:57:18.965Z,80.93
2022-10-16T20:59:46.922Z,80.91
2022-10-16T21:02:14.723Z,81.08
2022-10-16T21:04:42.473Z,81.00
2022-10-16T21:07:10.796Z,81.09
2022-10-16T21:09:38.937Z,81.31
2022-10-16T21:12:08.003Z,81.69
2022-10-16T21:14:42.293Z,81.58
2022-10-16T21:17:14.012Z,81.37
2022-10-16T21:19:41.567Z,81.67
2022-10-16T21:22:09.384Z,81.38
2022-10-16T21:24:37.711Z,81.42
2022-10-16T21:27:05.567Z,81.47
2022-10-16T21:29:34.922Z,81.62
2022-10-16T21:32:02.854Z,81.64
2022-10-16T21:34:30.471Z,81.77
2022-10-16T21:36:58.098Z,81.94
2022-10-16T21:39:25.859Z,81.85
2022-10-16T21:41:53.479Z,82.12
2022-10-16T21:44:21.197Z,82.24
2022-10-16T21:46:51.806Z,82.63
2022-10-16T21:49:20.329Z,82.47
2022-10-16T21:51:49.842Z,82.05
2022-10-16T21:54:19.401Z,82.31
2022-10-16T21:56:47.209Z,82.42
2022-10-16T21:59:15.580Z,82.90
2022-10-16T22:01:43.978Z,82.43
2022-10-16T22:04:13.700Z,82.59
2022-10-16T22:06:41.590Z,82.38
2022-10-16T22:09:09.514Z,82.83
2022-10-16T22:11:38.259Z,82.75
2022-10-16T22:14:06.806Z,82.96
2022-10-16T22:16:34.834Z,82.81
2022-10-16T22:19:06.960Z,83.14
2022-10-16T22:21:37.434Z,82.93
2022-10-16T22:24:06.058Z,83.10
2022-10-16T22:26:34.202Z,83.16
2022-10-16T22:29:01.989Z,83.11
2022-10-16T22:31:29.701Z,83.42
2022-10-16T22:33:58.293Z,82.92
2022-10-16T22:36:26.493Z,83.28
2022-10-16T22:38:55.611Z,82.92
2022-10-16T22:41:24.631Z,82.92
2022-10-16T22:43:52.661Z,82.92
2022-10-16T22:46:22.068Z,83.07
2022-10-16T22:48:49.700Z,83.10
2022-10-16T22:51:17.669Z,83.04
2022-10-16T22:53:45.662Z,82.89
2022-10-16T22:56:15.914Z,82.87
2022-10-16T22:58:44.248Z,83.10
2022-10-16T23:01:14.078Z,82.98
2022-10-16T23:03:41.723Z,83.06
2022-10-16T23:06:09.393Z,83.03
2022-10-16T23:08:37.121Z,82.64
2022-10-16T23:11:07.334Z,82.95
2022-10-16T23:13:38.995Z,82.77
2022-10-16T23:16:07.679Z,82.47
2022-10-16T23:18:35.852Z,82.93
2022-10-16T23:21:06.135Z,82.70
2022-10-16T23:23:35.607Z,83.05
2022-10-16T23:26:03.510Z,83.01
2022-10-16T23:28:32.188Z,83.02
2022-10-16T23:31:01.449Z,83.34
2022-10-16T23:33:29.069Z,83.35
2022-10-16T23:35:56.702Z,83.37
2022-10-16T23:38:24.362Z,83.39
2022-10-16T23:40:51.996Z,83.36
2022-10-16T23:43:19.630Z,83.16
2022-10-16T23:45:47.273Z,83.46
2022-10-16T23:48:16.245Z,83.40
2022-10-16T23:50:43.955Z,83.37
2022-10-16T23:53:11.635Z,83.30
2022-10-16T23:55:39.250Z,83.47
2022-10-16T23:58:06.890Z,83.63
